sensor_id;sensor_type;location;lat;lon;timestamp;P1;durP1;ratioP1;P2;durP2;ratioP2
48516;SDS011;34310;51.904;4.256;2023-02-01T00:01:28;7.05;;;2.90;;
48516;SDS011;34310;51.904;4.256;2023-02-01T00:03:55;6.90;;;2.80;;
48516;SDS011;34310;51.904;4.256;2023-02-01T00:06:23;8.13;;;2.80;;
48516;SDS011;34310;51.904;4.256;2023-02-01T00:08:55;4.55;;;2.40;;
48516;SDS011;34310;51.904;4.256;2023-02-01T00:11:32;5.95;;;2.90;;
48516;SDS011;34310;51.904;4.256;2023-02-01T00:14:08;6.10;;;2.53;;
48516;SDS011;34310;51.904;4.256;2023-02-01T00:16:53;6.03;;;2.72;;
48516;SDS011;34310;51.904;4.256;2023-02-01T00:20:15;5.55;;;2.53;;
48516;SDS011;34310;51.904;4.256;2023-02-01T00:22:42;7.97;;;2.97;;
48516;SDS011;34310;51.904;4.256;2023-02-01T00:25:10;6.55;;;2.70;;
48516;SDS011;34310;51.904;4.256;2023-02-01T00:27:37;6.28;;;2.40;;
48516;SDS011;34310;51.904;4.256;2023-02-01T00:30:05;6.20;;;2.75;;
48516;SDS011;34310;51.904;4.256;2023-02-01T00:32:36;5.15;;;2.40;;
48516;SDS011;34310;51.904;4.256;2023-02-01T00:35:04;5.70;;;2.30;;
48516;SDS011;34310;51.904;4.256;2023-02-01T00:37:33;6.63;;;2.40;;
48516;SDS011;34310;51.904;4.256;2023-02-01T00:40:04;5.30;;;2.50;;
48516;SDS011;34310;51.904;4.256;2023-02-01T00:42:33;5.45;;;2.03;;
48516;SDS011;34310;51.904;4.256;2023-02-01T00:45:00;7.32;;;2.40;;
48516;SDS011;34310;51.904;4.256;2023-02-01T00:47:28;5.57;;;2.17;;
48516;SDS011;34310;51.904;4.256;2023-02-01T00:49:57;8.05;;;2.78;;
48516;SDS011;34310;51.904;4.256;2023-02-01T00:52:24;4.32;;;2.22;;
48516;SDS011;34310;51.904;4.256;2023-02-01T00:54:52;5.85;;;2.45;;
48516;SDS011;34310;51.904;4.256;2023-02-01T00:57:20;3.72;;;1.83;;
48516;SDS011;34310;51.904;4.256;2023-02-01T00:59:47;5.40;;;2.30;;
48516;SDS011;34310;51.904;4.256;2023-02-01T01:02:14;7.68;;;2.40;;
48516;SDS011;34310;51.904;4.256;2023-02-01T01:04:42;6.80;;;2.38;;
48516;SDS011;34310;51.904;4.256;2023-02-01T01:07:10;7.82;;;2.60;;
48516;SDS011;34310;51.904;4.256;2023-02-01T01:09:49;5.38;;;2.30;;
48516;SDS011;34310;51.904;4.256;2023-02-01T01:12:26;6.88;;;2.40;;
48516;SDS011;34310;51.904;4.256;2023-02-01T01:15:15;4.80;;;2.30;;
48516;SDS011;34310;51.904;4.256;2023-02-01T01:17:42;7.70;;;2.67;;
48516;SDS011;34310;51.904;4.256;2023-02-01T01:20:10;6.80;;;2.35;;
48516;SDS011;34310;51.904;4.256;2023-02-01T01:22:38;5.53;;;1.90;;
48516;SDS011;34310;51.904;4.256;2023-02-01T01:25:26;5.78;;;2.03;;
48516;SDS011;34310;51.904;4.256;2023-02-01T01:27:54;6.55;;;2.47;;
48516;SDS011;34310;51.904;4.256;2023-02-01T01:30:22;8.20;;;2.47;;
48516;SDS011;34310;51.904;4.256;2023-02-01T01:32:51;5.47;;;2.08;;
48516;SDS011;34310;51.904;4.256;2023-02-01T01:35:25;7.53;;;2.50;;
48516;SDS011;34310;51.904;4.256;2023-02-01T01:38:19;11.32;;;3.10;;
48516;SDS011;34310;51.904;4.256;2023-02-01T01:40:47;5.18;;;2.20;;
48516;SDS011;34310;51.904;4.256;2023-02-01T01:43:20;7.60;;;2.50;;
48516;SDS011;34310;51.904;4.256;2023-02-01T01:46:07;8.43;;;2.50;;
48516;SDS011;34310;51.904;4.256;2023-02-01T01:48:35;7.57;;;2.50;;
48516;SDS011;34310;51.904;4.256;2023-02-01T01:51:08;7.22;;;2.65;;
48516;SDS011;34310;51.904;4.256;2023-02-01T01:54:48;8.13;;;2.70;;
48516;SDS011;34310;51.904;4.256;2023-02-01T01:57:26;8.82;;;2.67;;
48516;SDS011;34310;51.904;4.256;2023-02-01T02:00:03;10.35;;;2.90;;
48516;SDS011;34310;51.904;4.256;2023-02-01T02:03:08;8.27;;;2.83;;
48516;SDS011;34310;51.904;4.256;2023-02-01T02:05:41;8.27;;;3.35;;
48516;SDS011;34310;51.904;4.256;2023-02-01T02:08:10;7.32;;;2.40;;
48516;SDS011;34310;51.904;4.256;2023-02-01T02:10:38;6.65;;;2.13;;
48516;SDS011;34310;51.904;4.256;2023-02-01T02:13:53;10.30;;;2.63;;
48516;SDS011;34310;51.904;4.256;2023-02-01T02:16:33;8.32;;;2.80;;
48516;SDS011;34310;51.904;4.256;2023-02-01T02:28:05;6.65;;;2.40;;
48516;SDS011;34310;51.904;4.256;2023-02-01T02:33:25;9.85;;;2.67;;
48516;SDS011;34310;51.904;4.256;2023-02-01T02:39:26;6.85;;;2.17;;
48516;SDS011;34310;51.904;4.256;2023-02-01T02:42:24;7.70;;;2.50;;
48516;SDS011;34310;51.904;4.256;2023-02-01T02:48:42;7.05;;;2.10;;
48516;SDS011;34310;51.904;4.256;2023-02-01T02:51:33;5.60;;;2.30;;
48516;SDS011;34310;51.904;4.256;2023-02-01T02:54:22;6.22;;;2.30;;
48516;SDS011;34310;51.904;4.256;2023-02-01T02:57:52;5.60;;;2.10;;
48516;SDS011;34310;51.904;4.256;2023-02-01T03:00:39;4.38;;;2.25;;
48516;SDS011;34310;51.904;4.256;2023-02-01T03:03:27;5.53;;;1.85;;
48516;SDS011;34310;51.904;4.256;2023-02-01T03:06:13;6.22;;;2.50;;
48516;SDS011;34310;51.904;4.256;2023-02-01T03:09:03;6.50;;;2.47;;
48516;SDS011;34310;51.904;4.256;2023-02-01T03:11:34;6.60;;;1.77;;
48516;SDS011;34310;51.904;4.256;2023-02-01T03:14:22;5.65;;;2.38;;
48516;SDS011;34310;51.904;4.256;2023-02-01T03:17:34;4.93;;;2.17;;
48516;SDS011;34310;51.904;4.256;2023-02-01T03:20:09;4.70;;;1.95;;
48516;SDS011;34310;51.904;4.256;2023-02-01T03:22:47;5.70;;;1.95;;
48516;SDS011;34310;51.904;4.256;2023-02-01T03:25:27;5.63;;;2.22;;
48516;SDS011;34310;51.904;4.256;2023-02-01T03:28:25;6.50;;;2.13;;
48516;SDS011;34310;51.904;4.256;2023-02-01T03:30:54;4.68;;;2.22;;
48516;SDS011;34310;51.904;4.256;2023-02-01T03:33:23;6.40;;;2.25;;
48516;SDS011;34310;51.904;4.256;2023-02-01T03:36:40;5.53;;;2.10;;
48516;SDS011;34310;51.904;4.256;2023-02-01T03:44:29;6.30;;;2.00;;
48516;SDS011;34310;51.904;4.256;2023-02-01T03:47:18;6.40;;;2.33;;
48516;SDS011;34310;51.904;4.256;2023-02-01T03:49:50;4.50;;;1.98;;
48516;SDS011;34310;51.904;4.256;2023-02-01T03:52:34;6.30;;;2.00;;
48516;SDS011;34310;51.904;4.256;2023-02-01T03:55:07;6.03;;;1.88;;
48516;SDS011;34310;51.904;4.256;2023-02-01T03:57:38;5.18;;;1.98;;
48516;SDS011;34310;51.904;4.256;2023-02-01T04:00:16;6.10;;;1.83;;
48516;SDS011;34310;51.904;4.256;2023-02-01T04:02:49;7.40;;;2.05;;
48516;SDS011;34310;51.904;4.256;2023-02-01T04:05:27;6.25;;;2.17;;
48516;SDS011;34310;51.904;4.256;2023-02-01T04:08:00;5.82;;;2.10;;
48516;SDS011;34310;51.904;4.256;2023-02-01T04:10:27;7.30;;;2.40;;
48516;SDS011;34310;51.904;4.256;2023-02-01T04:12:55;7.97;;;2.30;;
48516;SDS011;34310;51.904;4.256;2023-02-01T04:15:22;6.88;;;2.40;;
48516;SDS011;34310;51.904;4.256;2023-02-01T04:18:25;8.60;;;2.70;;
48516;SDS011;34310;51.904;4.256;2023-02-01T04:21:05;6.70;;;2.60;;
48516;SDS011;34310;51.904;4.256;2023-02-01T04:23:33;6.65;;;2.00;;
48516;SDS011;34310;51.904;4.256;2023-02-01T04:26:01;6.50;;;2.60;;
48516;SDS011;34310;51.904;4.256;2023-02-01T04:28:47;5.88;;;2.33;;
48516;SDS011;34310;51.904;4.256;2023-02-01T04:31:55;7.47;;;2.20;;
48516;SDS011;34310;51.904;4.256;2023-02-01T04:34:23;10.70;;;2.47;;
48516;SDS011;34310;51.904;4.256;2023-02-01T04:36:51;7.72;;;2.30;;
48516;SDS011;34310;51.904;4.256;2023-02-01T04:39:28;6.55;;;2.42;;
48516;SDS011;34310;51.904;4.256;2023-02-01T04:42:10;8.00;;;2.55;;
48516;SDS011;34310;51.904;4.256;2023-02-01T04:44:37;7.13;;;2.35;;
48516;SDS011;34310;51.904;4.256;2023-02-01T04:47:17;9.65;;;2.40;;
48516;SDS011;34310;51.904;4.256;2023-02-01T04:49:47;6.30;;;1.90;;
48516;SDS011;34310;51.904;4.256;2023-02-01T04:57:46;7.32;;;2.65;;
48516;SDS011;34310;51.904;4.256;2023-02-01T05:00:41;8.32;;;2.55;;
48516;SDS011;34310;51.904;4.256;2023-02-01T05:03:27;8.93;;;2.53;;
48516;SDS011;34310;51.904;4.256;2023-02-01T05:05:55;8.18;;;2.10;;
48516;SDS011;34310;51.904;4.256;2023-02-01T05:08:22;5.30;;;2.03;;
48516;SDS011;34310;51.904;4.256;2023-02-01T05:10:51;7.10;;;2.30;;
48516;SDS011;34310;51.904;4.256;2023-02-01T05:13:35;7.53;;;2.13;;
48516;SDS011;34310;51.904;4.256;2023-02-01T05:16:56;10.23;;;2.58;;
48516;SDS011;34310;51.904;4.256;2023-02-01T05:19:23;8.00;;;2.38;;
48516;SDS011;34310;51.904;4.256;2023-02-01T05:22:12;9.85;;;2.60;;
48516;SDS011;34310;51.904;4.256;2023-02-01T05:24:39;9.45;;;3.08;;
48516;SDS011;34310;51.904;4.256;2023-02-01T05:27:10;7.18;;;2.25;;
48516;SDS011;34310;51.904;4.256;2023-02-01T05:29:38;5.97;;;2.30;;
48516;SDS011;34310;51.904;4.256;2023-02-01T05:32:06;5.70;;;2.00;;
48516;SDS011;34310;51.904;4.256;2023-02-01T05:35:21;7.68;;;2.50;;
48516;SDS011;34310;51.904;4.256;2023-02-01T05:37:58;5.97;;;2.88;;
48516;SDS011;34310;51.904;4.256;2023-02-01T05:40:38;4.93;;;1.90;;
48516;SDS011;34310;51.904;4.256;2023-02-01T05:43:10;5.88;;;2.33;;
48516;SDS011;34310;51.904;4.256;2023-02-01T05:45:41;5.75;;;2.35;;
48516;SDS011;34310;51.904;4.256;2023-02-01T05:48:09;4.80;;;1.90;;
48516;SDS011;34310;51.904;4.256;2023-02-01T05:50:36;5.75;;;2.20;;
48516;SDS011;34310;51.904;4.256;2023-02-01T05:53:05;5.15;;;2.10;;
48516;SDS011;34310;51.904;4.256;2023-02-01T05:55:41;7.00;;;2.28;;
48516;SDS011;34310;51.904;4.256;2023-02-01T05:58:23;6.55;;;2.30;;
48516;SDS011;34310;51.904;4.256;2023-02-01T06:00:54;6.25;;;2.28;;
48516;SDS011;34310;51.904;4.256;2023-02-01T06:03:26;5.57;;;2.00;;
48516;SDS011;34310;51.904;4.256;2023-02-01T06:05:54;7.43;;;2.20;;
48516;SDS011;34310;51.904;4.256;2023-02-01T06:08:26;7.00;;;2.40;;
48516;SDS011;34310;51.904;4.256;2023-02-01T06:11:01;6.25;;;2.10;;
48516;SDS011;34310;51.904;4.256;2023-02-01T06:13:30;6.18;;;2.03;;
48516;SDS011;34310;51.904;4.256;2023-02-01T06:16:03;4.82;;;1.98;;
48516;SDS011;34310;51.904;4.256;2023-02-01T06:18:46;7.10;;;2.03;;
48516;SDS011;34310;51.904;4.256;2023-02-01T06:21:15;7.28;;;2.55;;
48516;SDS011;34310;51.904;4.256;2023-02-01T06:24:11;10.55;;;2.30;;
48516;SDS011;34310;51.904;4.256;2023-02-01T06:26:48;5.93;;;2.13;;
48516;SDS011;34310;51.904;4.256;2023-02-01T06:29:16;6.88;;;2.50;;
48516;SDS011;34310;51.904;4.256;2023-02-01T06:32:22;6.40;;;2.38;;
48516;SDS011;34310;51.904;4.256;2023-02-01T06:34:52;7.50;;;2.38;;
48516;SDS011;34310;51.904;4.256;2023-02-01T06:37:23;5.40;;;2.00;;
48516;SDS011;34310;51.904;4.256;2023-02-01T06:39:58;6.30;;;2.20;;
48516;SDS011;34310;51.904;4.256;2023-02-01T06:42:35;7.55;;;2.75;;
48516;SDS011;34310;51.904;4.256;2023-02-01T06:45:02;6.63;;;2.25;;
48516;SDS011;34310;51.904;4.256;2023-02-01T06:47:30;6.75;;;2.08;;
48516;SDS011;34310;51.904;4.256;2023-02-01T06:49:57;5.47;;;1.92;;
48516;SDS011;34310;51.904;4.256;2023-02-01T06:52:25;7.28;;;2.15;;
48516;SDS011;34310;51.904;4.256;2023-02-01T07:00:42;7.45;;;2.30;;
48516;SDS011;34310;51.904;4.256;2023-02-01T07:03:09;6.65;;;2.40;;
48516;SDS011;34310;51.904;4.256;2023-02-01T07:05:37;12.38;;;2.50;;
48516;SDS011;34310;51.904;4.256;2023-02-01T07:08:04;7.30;;;2.50;;
48516;SDS011;34310;51.904;4.256;2023-02-01T07:10:31;7.13;;;2.38;;
48516;SDS011;34310;51.904;4.256;2023-02-01T07:13:00;7.55;;;2.72;;
48516;SDS011;34310;51.904;4.256;2023-02-01T07:15:27;7.25;;;2.47;;
48516;SDS011;34310;51.904;4.256;2023-02-01T07:17:55;6.82;;;2.58;;
48516;SDS011;34310;51.904;4.256;2023-02-01T07:20:23;8.57;;;2.40;;
48516;SDS011;34310;51.904;4.256;2023-02-01T07:22:55;6.93;;;2.58;;
48516;SDS011;34310;51.904;4.256;2023-02-01T07:25:23;6.75;;;2.65;;
48516;SDS011;34310;51.904;4.256;2023-02-01T07:27:51;10.73;;;3.08;;
48516;SDS011;34310;51.904;4.256;2023-02-01T07:30:18;6.72;;;2.47;;
48516;SDS011;34310;51.904;4.256;2023-02-01T07:32:46;8.48;;;2.40;;
48516;SDS011;34310;51.904;4.256;2023-02-01T07:35:14;7.88;;;2.25;;
48516;SDS011;34310;51.904;4.256;2023-02-01T07:37:41;7.85;;;2.50;;
48516;SDS011;34310;51.904;4.256;2023-02-01T07:40:09;5.57;;;1.88;;
48516;SDS011;34310;51.904;4.256;2023-02-01T07:42:37;8.32;;;2.22;;
48516;SDS011;34310;51.904;4.256;2023-02-01T07:45:05;8.30;;;2.60;;
48516;SDS011;34310;51.904;4.256;2023-02-01T07:47:46;8.70;;;2.00;;
48516;SDS011;34310;51.904;4.256;2023-02-01T07:50:14;7.95;;;2.60;;
48516;SDS011;34310;51.904;4.256;2023-02-01T07:52:42;7.35;;;2.53;;
48516;SDS011;34310;51.904;4.256;2023-02-01T07:55:09;6.90;;;2.50;;
48516;SDS011;34310;51.904;4.256;2023-02-01T07:57:37;9.25;;;2.63;;
48516;SDS011;34310;51.904;4.256;2023-02-01T08:00:12;8.30;;;2.70;;
48516;SDS011;34310;51.904;4.256;2023-02-01T08:02:58;8.93;;;2.97;;
48516;SDS011;34310;51.904;4.256;2023-02-01T08:05:26;7.60;;;2.42;;
48516;SDS011;34310;51.904;4.256;2023-02-01T08:07:55;6.72;;;2.42;;
48516;SDS011;34310;51.904;4.256;2023-02-01T08:10:22;6.55;;;2.38;;
48516;SDS011;34310;51.904;4.256;2023-02-01T08:12:50;6.43;;;2.20;;
48516;SDS011;34310;51.904;4.256;2023-02-01T08:15:18;7.32;;;2.40;;
48516;SDS011;34310;51.904;4.256;2023-02-01T08:17:49;4.93;;;1.95;;
48516;SDS011;34310;51.904;4.256;2023-02-01T08:20:18;5.65;;;2.38;;
48516;SDS011;34310;51.904;4.256;2023-02-01T08:22:49;6.43;;;2.60;;
48516;SDS011;34310;51.904;4.256;2023-02-01T08:25:20;5.65;;;2.03;;
48516;SDS011;34310;51.904;4.256;2023-02-01T08:27:48;7.10;;;2.35;;
48516;SDS011;34310;51.904;4.256;2023-02-01T08:30:16;5.45;;;2.40;;
48516;SDS011;34310;51.904;4.256;2023-02-01T08:32:43;6.90;;;2.08;;
48516;SDS011;34310;51.904;4.256;2023-02-01T08:35:11;5.70;;;2.50;;
48516;SDS011;34310;51.904;4.256;2023-02-01T08:37:38;5.05;;;2.00;;
48516;SDS011;34310;51.904;4.256;2023-02-01T08:40:09;5.35;;;1.90;;
48516;SDS011;34310;51.904;4.256;2023-02-01T08:42:37;6.38;;;2.70;;
48516;SDS011;34310;51.904;4.256;2023-02-01T08:45:17;6.43;;;2.38;;
48516;SDS011;34310;51.904;4.256;2023-02-01T08:47:50;6.97;;;2.33;;
48516;SDS011;34310;51.904;4.256;2023-02-01T08:50:19;5.53;;;2.45;;
48516;SDS011;34310;51.904;4.256;2023-02-01T08:52:48;5.38;;;2.10;;
48516;SDS011;34310;51.904;4.256;2023-02-01T08:55:15;6.50;;;2.55;;
48516;SDS011;34310;51.904;4.256;2023-02-01T08:57:43;6.65;;;2.40;;
48516;SDS011;34310;51.904;4.256;2023-02-01T09:00:12;5.97;;;2.05;;
48516;SDS011;34310;51.904;4.256;2023-02-01T09:02:42;7.80;;;2.20;;
48516;SDS011;34310;51.904;4.256;2023-02-01T09:05:10;6.13;;;2.05;;
48516;SDS011;34310;51.904;4.256;2023-02-01T09:07:40;7.30;;;2.47;;
48516;SDS011;34310;51.904;4.256;2023-02-01T09:10:07;8.98;;;2.45;;
48516;SDS011;34310;51.904;4.256;2023-02-01T09:12:36;6.75;;;2.53;;
48516;SDS011;34310;51.904;4.256;2023-02-01T09:15:18;7.53;;;2.13;;
48516;SDS011;34310;51.904;4.256;2023-02-01T09:17:45;10.55;;;2.40;;
48516;SDS011;34310;51.904;4.256;2023-02-01T09:20:13;6.25;;;2.30;;
48516;SDS011;34310;51.904;4.256;2023-02-01T09:22:41;6.78;;;2.17;;
48516;SDS011;34310;51.904;4.256;2023-02-01T09:25:13;7.10;;;2.40;;
48516;SDS011;34310;51.904;4.256;2023-02-01T09:27:41;6.72;;;2.40;;
48516;SDS011;34310;51.904;4.256;2023-02-01T09:30:09;5.03;;;2.40;;
48516;SDS011;34310;51.904;4.256;2023-02-01T09:32:37;5.97;;;2.03;;
48516;SDS011;34310;51.904;4.256;2023-02-01T09:35:04;5.55;;;2.03;;
48516;SDS011;34310;51.904;4.256;2023-02-01T09:37:32;7.40;;;2.42;;
48516;SDS011;34310;51.904;4.256;2023-02-01T09:39:59;6.28;;;2.00;;
48516;SDS011;34310;51.904;4.256;2023-02-01T09:45:19;7.65;;;2.30;;
48516;SDS011;34310;51.904;4.256;2023-02-01T09:48:02;5.38;;;1.90;;
48516;SDS011;34310;51.904;4.256;2023-02-01T09:50:39;5.28;;;2.00;;
48516;SDS011;34310;51.904;4.256;2023-02-01T09:55:58;6.00;;;2.28;;
48516;SDS011;34310;51.904;4.256;2023-02-01T09:58:32;8.02;;;2.40;;
48516;SDS011;34310;51.904;4.256;2023-02-01T10:01:08;6.75;;;2.60;;
48516;SDS011;34310;51.904;4.256;2023-02-01T10:03:43;6.32;;;2.15;;
48516;SDS011;34310;51.904;4.256;2023-02-01T10:09:15;7.43;;;2.42;;
48516;SDS011;34310;51.904;4.256;2023-02-01T10:22:46;7.25;;;2.17;;
48516;SDS011;34310;51.904;4.256;2023-02-01T10:25:53;4.70;;;1.77;;
48516;SDS011;34310;51.904;4.256;2023-02-01T10:28:25;8.48;;;2.58;;
48516;SDS011;34310;51.904;4.256;2023-02-01T10:30:54;7.60;;;2.80;;
48516;SDS011;34310;51.904;4.256;2023-02-01T10:36:19;8.82;;;2.75;;
48516;SDS011;34310;51.904;4.256;2023-02-01T10:38:59;7.03;;;2.25;;
48516;SDS011;34310;51.904;4.256;2023-02-01T10:41:36;9.10;;;3.08;;
48516;SDS011;34310;51.904;4.256;2023-02-01T10:44:11;10.10;;;2.35;;
48516;SDS011;34310;51.904;4.256;2023-02-01T10:46:51;8.88;;;2.20;;
48516;SDS011;34310;51.904;4.256;2023-02-01T10:49:24;7.45;;;2.20;;
48516;SDS011;34310;51.904;4.256;2023-02-01T10:52:12;10.05;;;2.95;;
48516;SDS011;34310;51.904;4.256;2023-02-01T10:54:55;8.88;;;2.70;;
48516;SDS011;34310;51.904;4.256;2023-02-01T10:57:45;7.28;;;2.58;;
48516;SDS011;34310;51.904;4.256;2023-02-01T11:00:23;6.88;;;2.75;;
48516;SDS011;34310;51.904;4.256;2023-02-01T11:02:51;5.38;;;2.22;;
48516;SDS011;34310;51.904;4.256;2023-02-01T11:05:24;8.45;;;2.60;;
48516;SDS011;34310;51.904;4.256;2023-02-01T11:07:53;7.20;;;2.40;;
48516;SDS011;34310;51.904;4.256;2023-02-01T11:10:41;6.97;;;2.40;;
48516;SDS011;34310;51.904;4.256;2023-02-01T11:13:18;9.98;;;2.60;;
48516;SDS011;34310;51.904;4.256;2023-02-01T11:15:54;9.65;;;2.97;;
48516;SDS011;34310;51.904;4.256;2023-02-01T11:20:54;6.32;;;2.05;;
48516;SDS011;34310;51.904;4.256;2023-02-01T11:23:23;9.43;;;2.78;;
48516;SDS011;34310;51.904;4.256;2023-02-01T11:25:54;9.23;;;2.80;;
48516;SDS011;34310;51.904;4.256;2023-02-01T11:28:27;7.63;;;2.55;;
48516;SDS011;34310;51.904;4.256;2023-02-01T11:31:02;9.05;;;2.80;;
48516;SDS011;34310;51.904;4.256;2023-02-01T11:33:43;7.30;;;2.33;;
48516;SDS011;34310;51.904;4.256;2023-02-01T11:39:09;8.13;;;2.60;;
48516;SDS011;34310;51.904;4.256;2023-02-01T11:47:18;6.78;;;2.72;;
48516;SDS011;34310;51.904;4.256;2023-02-01T11:50:12;9.18;;;2.40;;
48516;SDS011;34310;51.904;4.256;2023-02-01T11:53:05;5.80;;;1.90;;
48516;SDS011;34310;51.904;4.256;2023-02-01T12:01:36;4.32;;;1.70;;
48516;SDS011;34310;51.904;4.256;2023-02-01T12:12:25;6.10;;;2.10;;
48516;SDS011;34310;51.904;4.256;2023-02-01T12:15:18;8.32;;;2.78;;
48516;SDS011;34310;51.904;4.256;2023-02-01T12:38:51;5.75;;;2.20;;
48516;SDS011;34310;51.904;4.256;2023-02-01T12:41:41;7.57;;;2.25;;
48516;SDS011;34310;51.904;4.256;2023-02-01T12:55:52;7.90;;;2.55;;
48516;SDS011;34310;51.904;4.256;2023-02-01T12:58:38;6.78;;;2.00;;
48516;SDS011;34310;51.904;4.256;2023-02-01T13:01:25;6.55;;;2.00;;
48516;SDS011;34310;51.904;4.256;2023-02-01T13:04:20;6.72;;;2.58;;
48516;SDS011;34310;51.904;4.256;2023-02-01T13:07:09;6.28;;;1.92;;
48516;SDS011;34310;51.904;4.256;2023-02-01T13:14:58;7.68;;;2.33;;
48516;SDS011;34310;51.904;4.256;2023-02-01T13:17:31;7.18;;;2.40;;
48516;SDS011;34310;51.904;4.256;2023-02-01T13:20:31;5.47;;;1.90;;
48516;SDS011;34310;51.904;4.256;2023-02-01T13:23:17;7.07;;;2.20;;
48516;SDS011;34310;51.904;4.256;2023-02-01T13:25:52;5.20;;;2.03;;
48516;SDS011;34310;51.904;4.256;2023-02-01T13:44:50;9.98;;;2.50;;
48516;SDS011;34310;51.904;4.256;2023-02-01T13:49:58;9.98;;;3.00;;
48516;SDS011;34310;51.904;4.256;2023-02-01T13:52:37;10.32;;;2.95;;
48516;SDS011;34310;51.904;4.256;2023-02-01T13:57:52;10.77;;;2.63;;
48516;SDS011;34310;51.904;4.256;2023-02-01T14:00:30;10.13;;;2.47;;
48516;SDS011;34310;51.904;4.256;2023-02-01T14:08:23;8.02;;;2.38;;
48516;SDS011;34310;51.904;4.256;2023-02-01T14:11:03;6.35;;;2.25;;
48516;SDS011;34310;51.904;4.256;2023-02-01T14:13:35;7.18;;;2.33;;
48516;SDS011;34310;51.904;4.256;2023-02-01T14:16:11;7.78;;;2.47;;
48516;SDS011;34310;51.904;4.256;2023-02-01T14:19:03;7.72;;;2.75;;
48516;SDS011;34310;51.904;4.256;2023-02-01T14:24:51;9.90;;;2.70;;
48516;SDS011;34310;51.904;4.256;2023-02-01T14:27:22;7.82;;;2.78;;
48516;SDS011;34310;51.904;4.256;2023-02-01T14:29:53;14.82;;;2.97;;
48516;SDS011;34310;51.904;4.256;2023-02-01T14:32:33;9.38;;;2.92;;
48516;SDS011;34310;51.904;4.256;2023-02-01T14:35:08;8.75;;;2.30;;
48516;SDS011;34310;51.904;4.256;2023-02-01T14:40:26;9.85;;;2.67;;
48516;SDS011;34310;51.904;4.256;2023-02-01T14:42:55;7.65;;;2.65;;
48516;SDS011;34310;51.904;4.256;2023-02-01T14:50:32;7.38;;;2.28;;
48516;SDS011;34310;51.904;4.256;2023-02-01T15:01:24;9.68;;;2.80;;
48516;SDS011;34310;51.904;4.256;2023-02-01T15:06:35;8.48;;;2.60;;
48516;SDS011;34310;51.904;4.256;2023-02-01T15:17:20;10.55;;;3.03;;
48516;SDS011;34310;51.904;4.256;2023-02-01T15:19:56;6.93;;;2.63;;
48516;SDS011;34310;51.904;4.256;2023-02-01T15:22:27;10.80;;;2.75;;
48516;SDS011;34310;51.904;4.256;2023-02-01T15:24:57;8.32;;;2.70;;
48516;SDS011;34310;51.904;4.256;2023-02-01T15:27:26;8.15;;;2.58;;
48516;SDS011;34310;51.904;4.256;2023-02-01T15:30:04;6.65;;;2.05;;
48516;SDS011;34310;51.904;4.256;2023-02-01T15:32:52;8.10;;;2.50;;
48516;SDS011;34310;51.904;4.256;2023-02-01T15:35:34;7.38;;;2.33;;
48516;SDS011;34310;51.904;4.256;2023-02-01T15:41:16;6.32;;;2.35;;
48516;SDS011;34310;51.904;4.256;2023-02-01T15:46:22;6.57;;;2.58;;
48516;SDS011;34310;51.904;4.256;2023-02-01T15:48:53;4.68;;;1.88;;
48516;SDS011;34310;51.904;4.256;2023-02-01T15:51:22;6.53;;;2.08;;
48516;SDS011;34310;51.904;4.256;2023-02-01T15:56:25;6.30;;;1.98;;
48516;SDS011;34310;51.904;4.256;2023-02-01T15:58:59;6.72;;;2.13;;
48516;SDS011;34310;51.904;4.256;2023-02-01T16:01:28;6.82;;;2.50;;
48516;SDS011;34310;51.904;4.256;2023-02-01T16:04:04;6.93;;;2.22;;
48516;SDS011;34310;51.904;4.256;2023-02-01T16:09:19;5.45;;;2.38;;
48516;SDS011;34310;51.904;4.256;2023-02-01T16:12:01;7.93;;;2.22;;
48516;SDS011;34310;51.904;4.256;2023-02-01T16:14:29;6.50;;;2.15;;
48516;SDS011;34310;51.904;4.256;2023-02-01T16:16:58;5.22;;;1.90;;
48516;SDS011;34310;51.904;4.256;2023-02-01T16:19:26;5.78;;;2.33;;
48516;SDS011;34310;51.904;4.256;2023-02-01T16:21:55;6.65;;;2.28;;
48516;SDS011;34310;51.904;4.256;2023-02-01T16:24:31;6.70;;;2.63;;
48516;SDS011;34310;51.904;4.256;2023-02-01T16:26:59;8.73;;;2.80;;
48516;SDS011;34310;51.904;4.256;2023-02-01T16:29:26;6.90;;;2.45;;
48516;SDS011;34310;51.904;4.256;2023-02-01T16:31:54;8.43;;;2.75;;
48516;SDS011;34310;51.904;4.256;2023-02-01T16:34:21;7.90;;;2.58;;
48516;SDS011;34310;51.904;4.256;2023-02-01T16:36:49;5.88;;;2.58;;
48516;SDS011;34310;51.904;4.256;2023-02-01T16:39:18;7.30;;;2.60;;
48516;SDS011;34310;51.904;4.256;2023-02-01T16:41:46;10.13;;;2.88;;
48516;SDS011;34310;51.904;4.256;2023-02-01T16:44:14;7.90;;;2.75;;
48516;SDS011;34310;51.904;4.256;2023-02-01T16:46:42;9.65;;;2.95;;
48516;SDS011;34310;51.904;4.256;2023-02-01T16:52:22;6.20;;;2.53;;
48516;SDS011;34310;51.904;4.256;2023-02-01T16:54:53;7.97;;;2.65;;
48516;SDS011;34310;51.904;4.256;2023-02-01T16:57:21;9.70;;;3.15;;
48516;SDS011;34310;51.904;4.256;2023-02-01T17:00:18;9.30;;;2.90;;
48516;SDS011;34310;51.904;4.256;2023-02-01T17:02:52;7.78;;;2.90;;
48516;SDS011;34310;51.904;4.256;2023-02-01T17:09:27;7.20;;;2.83;;
48516;SDS011;34310;51.904;4.256;2023-02-01T17:12:04;10.23;;;3.53;;
48516;SDS011;34310;51.904;4.256;2023-02-01T17:14:53;8.75;;;2.92;;
48516;SDS011;34310;51.904;4.256;2023-02-01T17:17:21;8.90;;;3.00;;
48516;SDS011;34310;51.904;4.256;2023-02-01T17:20:05;9.15;;;3.28;;
48516;SDS011;34310;51.904;4.256;2023-02-01T17:23:19;9.15;;;3.20;;
48516;SDS011;34310;51.904;4.256;2023-02-01T17:25:38;6.82;;;3.00;;
48516;SDS011;34310;51.904;4.256;2023-02-01T17:28:45;9.57;;;3.85;;
48516;SDS011;34310;51.904;4.256;2023-02-01T17:31:44;10.65;;;3.47;;
48516;SDS011;34310;51.904;4.256;2023-02-01T17:34:17;9.70;;;3.70;;
48516;SDS011;34310;51.904;4.256;2023-02-01T17:37:15;9.23;;;3.53;;
48516;SDS011;34310;51.904;4.256;2023-02-01T17:40:21;7.35;;;3.10;;
48516;SDS011;34310;51.904;4.256;2023-02-01T17:43:13;11.90;;;3.67;;
48516;SDS011;34310;51.904;4.256;2023-02-01T17:45:46;9.38;;;3.33;;
48516;SDS011;34310;51.904;4.256;2023-02-01T17:48:21;9.75;;;3.30;;
48516;SDS011;34310;51.904;4.256;2023-02-01T17:51:16;9.43;;;3.72;;
48516;SDS011;34310;51.904;4.256;2023-02-01T17:57:36;9.50;;;3.78;;
48516;SDS011;34310;51.904;4.256;2023-02-01T18:00:28;9.50;;;3.50;;
48516;SDS011;34310;51.904;4.256;2023-02-01T18:03:44;9.68;;;3.60;;
48516;SDS011;34310;51.904;4.256;2023-02-01T18:06:31;10.75;;;3.50;;
48516;SDS011;34310;51.904;4.256;2023-02-01T18:09:13;10.60;;;3.83;;
48516;SDS011;34310;51.904;4.256;2023-02-01T18:11:51;10.02;;;3.85;;
48516;SDS011;34310;51.904;4.256;2023-02-01T18:15:11;10.35;;;3.42;;
48516;SDS011;34310;51.904;4.256;2023-02-01T18:17:51;12.13;;;4.65;;
48516;SDS011;34310;51.904;4.256;2023-02-01T18:20:51;10.20;;;3.65;;
48516;SDS011;34310;51.904;4.256;2023-02-01T18:23:24;10.77;;;3.97;;
48516;SDS011;34310;51.904;4.256;2023-02-01T18:26:05;8.95;;;3.97;;
48516;SDS011;34310;51.904;4.256;2023-02-01T18:32:31;8.45;;;3.28;;
48516;SDS011;34310;51.904;4.256;2023-02-01T18:34:58;9.55;;;3.88;;
48516;SDS011;34310;51.904;4.256;2023-02-01T18:37:54;8.02;;;3.30;;
48516;SDS011;34310;51.904;4.256;2023-02-01T18:40:33;8.95;;;3.78;;
48516;SDS011;34310;51.904;4.256;2023-02-01T18:43:33;7.03;;;3.25;;
48516;SDS011;34310;51.904;4.256;2023-02-01T18:46:34;7.05;;;3.63;;
48516;SDS011;34310;51.904;4.256;2023-02-01T18:49:23;7.15;;;3.30;;
48516;SDS011;34310;51.904;4.256;2023-02-01T18:51:51;6.47;;;3.10;;
48516;SDS011;34310;51.904;4.256;2023-02-01T18:54:21;7.95;;;3.53;;
48516;SDS011;34310;51.904;4.256;2023-02-01T18:57:24;8.57;;;3.53;;
48516;SDS011;34310;51.904;4.256;2023-02-01T19:00:06;8.13;;;3.40;;
48516;SDS011;34310;51.904;4.256;2023-02-01T19:02:36;8.07;;;3.22;;
48516;SDS011;34310;51.904;4.256;2023-02-01T19:05:08;7.68;;;3.75;;